Time;durP1;ratioP1;P1;durP2;ratioP2;P2;SDS_P1;SDS_P2;PMS_P1;PMS_P2;Temp;Humidity;BMP_temperature;BMP_pressure;BME280_temperature;BME280_humidity;BME280_pressure;Samples;Min_cycle;Max_cycle;Signal;HPM_P1;HPM_P2
2022/06/13 00:01:34;;;;;;;19.92;6.63;;;;;;;10.49;100.00;155162.16;4922785;29;20082;-79
2022/06/13 00:04:01;;;;;;;14.65;5.20;;;;;;;10.51;100.00;155167.28;4943537;28;20081;-77
2022/06/13 00:06:27;;;;;;;22.92;6.32;;;;;;;10.50;100.00;155164.69;4964454;28;20071;-76
2022/06/13 00:08:54;;;;;;;21.63;5.45;;;;;;;10.52;100.00;155169.81;4941320;28;20050;-77
2022/06/13 00:11:23;;;;;;;16.95;5.55;;;;;;;10.54;100.00;155173.69;4926924;29;20039;-81
2022/06/13 00:13:53;;;;;;;16.35;5.40;;;;;;;10.55;100.00;155176.28;4927632;29;20042;-80
2022/06/13 00:16:20;;;;;;;17.27;5.93;;;;;;;10.54;100.00;155172.41;4913872;29;20036;-80
2022/06/13 00:18:48;;;;;;;24.25;5.68;;;;;;;10.50;100.00;155163.44;4940261;29;20043;-80
2022/06/13 00:21:20;;;;;;;18.00;5.78;;;;;;;10.55;100.00;155174.94;4939741;28;20118;-78
2022/06/13 00:23:47;;;;;;;18.20;6.00;;;;;;;10.54;100.00;155172.41;4946598;29;20042;-80
2022/06/13 00:26:13;;;;;;;21.55;5.95;;;;;;;10.55;100.00;155174.94;4958227;28;20045;-77
2022/06/13 00:28:39;;;;;;;18.77;6.15;;;;;;;10.47;100.00;155157.03;4951361;29;20035;-80
2022/06/13 00:31:04;;;;;;;22.00;6.03;;;;;;;10.42;100.00;155144.19;4951398;28;20044;-79
2022/06/13 00:33:30;;;;;;;19.30;5.70;;;;;;;10.44;100.00;155149.31;4910172;29;20086;-79
2022/06/13 00:35:56;;;;;;;21.15;5.90;;;;;;;10.46;100.00;155153.16;4941588;28;20118;-80
2022/06/13 00:38:22;;;;;;;15.93;5.18;;;;;;;10.44;100.00;155148.03;4939060;28;20046;-79
2022/06/13 00:40:48;;;;;;;21.40;5.88;;;;;;;10.42;100.00;155142.91;4925522;29;20035;-81
2022/06/13 00:43:15;;;;;;;17.35;5.57;;;;;;;10.42;100.00;155144.19;4920719;28;20031;-79
2022/06/13 00:45:41;;;;;;;20.75;5.50;;;;;;;10.40;100.00;155137.78;4917454;29;20027;-79
2022/06/13 00:48:12;;;;;;;26.85;6.28;;;;;;;10.36;100.00;155128.81;4958884;28;20046;-82
2022/06/13 00:50:44;;;;;;;16.70;5.50;;;;;;;10.37;100.00;155130.06;4940403;29;20035;-79
2022/06/13 00:53:12;;;;;;;;;;;;;;;10.31;100.00;155117.22;4947209;28;20043;-80
2022/06/13 00:55:53;;;;;;;22.23;5.97;;;;;;;10.25;100.00;155100.53;4952049;28;19964;-81
2022/06/13 00:58:19;;;;;;;26.23;7.15;;;;;;;10.26;100.00;155104.34;4933223;29;20036;-82
2022/06/13 01:00:50;;;;;;;21.95;5.93;;;;;;;10.27;100.00;155106.94;4949059;29;20031;-80
2022/06/13 01:03:16;;;;;;;19.20;6.00;;;;;;;10.25;100.00;155101.81;4953358;29;20055;-79
2022/06/13 01:05:45;;;;;;;26.40;6.22;;;;;;;10.28;100.00;155108.19;4948237;28;20292;-81
2022/06/13 01:08:12;;;;;;;17.88;5.30;;;;;;;10.29;100.00;155112.06;4941888;28;20035;-79
2022/06/13 01:13:52;;;;;;;22.33;6.05;;;;;;;10.32;100.00;155118.50;4954999;28;20569;-81
2022/06/13 01:16:43;;;;;;;23.30;6.07;;;;;;;10.39;100.00;155136.47;4926542;29;20040;-79
2022/06/13 01:19:48;;;;;;;21.13;5.93;;;;;;;10.54;100.00;155173.69;4929721;28;20043;-79
2022/06/13 01:22:34;;;;;;;19.23;5.85;;;;;;;10.50;100.00;155163.44;4924473;28;20027;-79
2022/06/13 01:25:11;;;;;;;26.52;5.72;;;;;;;10.51;100.00;155167.28;4926146;29;20407;-78
2022/06/13 01:27:51;;;;;;;25.92;6.57;;;;;;;10.41;100.00;155141.59;4935043;29;20430;-78
2022/06/13 01:30:26;;;;;;;18.58;5.80;;;;;;;10.43;100.00;155145.47;4943183;28;20035;-81
2022/06/13 01:33:12;;;;;;;24.70;6.13;;;;;;;10.50;100.00;155164.69;4935166;28;20046;-79
2022/06/13 01:35:45;;;;;;;22.17;6.35;;;;;;;10.46;100.00;155153.16;4920968;29;20036;-80
2022/06/13 01:38:32;;;;;;;27.10;6.75;;;;;;;10.26;100.00;155103.06;4919400;29;20476;-80
2022/06/13 01:41:13;;;;;;;17.67;5.53;;;;;;;10.25;100.00;155101.81;4945075;29;20059;-78
2022/06/13 01:44:10;;;;;;;20.63;6.05;;;;;;;10.22;100.00;155094.09;4943784;29;20035;-78
2022/06/13 01:46:46;;;;;;;17.30;5.65;;;;;;;10.23;100.00;155095.41;4935912;29;20066;-79
2022/06/13 01:49:33;;;;;;;23.35;6.07;;;;;;;10.17;100.00;155081.31;4933738;28;20047;-80
2022/06/13 01:52:12;;;;;;;18.70;5.88;;;;;;;10.07;100.00;155055.63;4953839;28;20050;-80
2022/06/13 01:54:47;;;;;;;22.48;6.38;;;;;;;10.07;100.00;155055.63;4933872;29;20050;-82
2022/06/13 01:57:25;;;;;;;26.17;6.43;;;;;;;10.00;100.00;155038.97;4948235;28;20057;-80
2022/06/13 02:00:11;;;;;;;19.55;5.18;;;;;;;9.98;100.00;155032.53;4954574;29;20049;-82
2022/06/13 02:02:58;;;;;;;23.50;5.82;;;;;;;9.95;100.00;155026.13;4947358;29;20081;-80
2022/06/13 02:05:57;;;;;;;21.98;6.30;;;;;;;9.80;100.00;154988.94;4953604;28;20059;-80
2022/06/13 02:08:46;;;;;;;19.98;5.85;;;;;;;9.82;100.00;154992.81;4911769;28;20039;-82
2022/06/13 02:11:20;;;;;;;23.42;6.38;;;;;;;9.77;100.00;154981.25;4931908;28;20073;-80
2022/06/13 02:13:53;;;;;;;26.58;6.35;;;;;;;9.63;100.00;154945.38;4947527;29;20043;-81
2022/06/13 02:16:25;;;;;;;25.80;6.78;;;;;;;9.54;100.00;154923.56;4934745;29;20117;-81
2022/06/13 02:19:13;;;;;;;21.50;5.70;;;;;;;9.63;100.00;154945.38;4945152;29;20045;-82
2022/06/13 02:21:44;;;;;;;19.88;6.07;;;;;;;9.58;100.00;154933.78;4954290;28;20039;-80
2022/06/13 02:24:17;;;;;;;17.73;5.80;;;;;;;9.49;100.00;154912.03;4943214;28;20098;-79
2022/06/13 02:26:48;;;;;;;21.48;6.07;;;;;;;9.58;100.00;154933.78;4939138;29;20054;-82
2022/06/13 02:29:22;;;;;;;21.77;5.70;;;;;;;9.46;100.00;154904.31;4923893;29;20039;-81
2022/06/13 02:31:54;;;;;;;25.90;6.55;;;;;;;9.44;100.00;154899.19;4946086;29;20134;-83
2022/06/13 02:34:31;;;;;;;23.15;6.82;;;;;;;9.30;100.00;154863.28;4932193;28;20047;-81
2022/06/13 02:37:25;;;;;;;25.75;6.80;;;;;;;9.30;100.00;154864.56;4915589;29;20043;-83
2022/06/13 02:40:11;;;;;;;21.08;6.28;;;;;;;9.51;100.00;154915.84;4960512;28;20414;-80
2022/06/13 02:42:45;;;;;;;33.55;6.07;;;;;;;9.46;100.00;154904.31;4940804;29;20521;-84
2022/06/13 02:45:38;;;;;;;26.10;7.15;;;;;;;9.52;100.00;154919.69;4953954;28;20051;-83
2022/06/13 02:48:20;;;;;;;20.30;6.95;;;;;;;9.52;100.00;154918.41;4940519;29;20123;-80
2022/06/13 02:51:15;;;;;;;23.23;7.18;;;;;;;9.88;100.00;155009.44;4931284;29;20043;-80
2022/06/13 02:53:53;;;;;;;22.17;7.15;;;;;;;9.81;100.00;154991.47;4924388;29;20050;-80
2022/06/13 02:59:52;;;;;;;26.27;8.38;;;;;;;9.92;100.00;155018.44;4934586;29;20125;-82
2022/06/13 03:02:27;;;;;;;20.67;7.03;;;;;;;9.92;100.00;155018.44;4941149;28;20049;-83
2022/06/13 03:05:30;;;;;;;22.30;7.55;;;;;;;9.96;100.00;155027.41;4927749;28;20035;-81
2022/06/13 03:08:10;;;;;;;18.90;7.53;;;;;;;10.01;100.00;155040.25;4915271;28;20517;-83
2022/06/13 03:11:04;;;;;;;22.95;7.55;;;;;;;10.01;100.00;155041.50;4944182;29;20039;-83
2022/06/13 03:13:50;;;;;;;22.48;7.38;;;;;;;10.03;100.00;155045.38;4934287;29;20049;-81
2022/06/13 03:16:29;;;;;;;22.73;8.20;;;;;;;9.97;100.00;155031.25;4931951;29;20067;-81
2022/06/13 03:19:02;;;;;;;29.30;8.35;;;;;;;9.93;100.00;155021.00;4950352;28;20050;-82
2022/06/13 03:21:34;;;;;;;21.25;8.13;;;;;;;9.90;100.00;155013.31;4926922;29;20035;-80
2022/06/13 03:24:14;;;;;;;24.25;8.00;;;;;;;9.92;100.00;155019.69;4948937;29;20047;-81
2022/06/13 03:26:46;;;;;;;24.42;7.35;;;;;;;9.91;100.00;155017.16;4936779;29;20040;-81
2022/06/13 03:29:22;;;;;;;27.47;7.17;;;;;;;9.91;100.00;155017.16;4965473;28;20049;-81
2022/06/13 03:31:52;;;;;;;27.25;7.95;;;;;;;9.90;100.00;155014.56;4946724;29;20043;-80
2022/06/13 03:34:24;;;;;;;17.88;6.50;;;;;;;9.84;100.00;154997.94;4922494;28;20034;-82
2022/06/13 03:37:02;;;;;;;21.65;6.85;;;;;;;9.84;100.00;154997.94;4949581;28;20070;-83
2022/06/13 03:39:35;;;;;;;19.70;7.15;;;;;;;9.83;100.00;154996.66;4934252;29;20046;-81
2022/06/13 03:42:19;;;;;;;19.42;6.85;;;;;;;10.02;100.00;155042.78;4976244;28;20057;-83
2022/06/13 03:45:17;;;;;;;20.10;6.70;;;;;;;10.05;100.00;155050.50;4945895;29;20039;-82
2022/06/13 03:48:03;;;;;;;20.13;6.80;;;;;;;10.13;100.00;155071.00;4922006;28;20039;-80
2022/06/13 03:50:38;;;;;;;22.42;6.80;;;;;;;10.14;100.00;155073.59;4926241;29;20038;-83
2022/06/13 03:53:17;;;;;;;20.55;6.80;;;;;;;10.23;100.00;155096.69;4946661;29;20089;-83
2022/06/13 03:55:55;;;;;;;18.92;6.50;;;;;;;10.29;100.00;155110.78;4955907;28;20042;-80
2022/06/13 03:58:33;;;;;;;16.45;6.35;;;;;;;10.32;100.00;155119.81;4930649;29;20087;-80
2022/06/13 04:01:12;;;;;;;18.95;6.38;;;;;;;10.37;100.00;155131.34;4955331;28;20106;-81
2022/06/13 04:03:38;;;;;;;20.88;6.53;;;;;;;10.36;100.00;155127.50;4924166;29;20043;-79
2022/06/13 04:06:25;;;;;;;19.25;5.85;;;;;;;10.33;100.00;155122.38;4917693;28;20045;-82
2022/06/13 04:08:52;;;;;;;23.48;6.88;;;;;;;10.27;100.00;155106.94;4945987;29;20047;-81
2022/06/13 04:11:33;;;;;;;19.35;6.00;;;;;;;10.41;100.00;155141.59;4955880;29;20031;-82
2022/06/13 04:14:21;;;;;;;20.90;6.75;;;;;;;10.55;100.00;155176.28;4940900;29;20046;-81
2022/06/13 04:16:52;;;;;;;17.55;6.63;;;;;;;10.61;100.00;155190.38;4942032;29;20048;-81
2022/06/13 04:19:39;;;;;;;19.25;6.35;;;;;;;10.68;100.00;155208.31;4937367;28;21062;-77
2022/06/13 04:22:28;;;;;;;17.23;5.90;;;;;;;10.71;100.00;155217.28;4933170;28;20426;-82
2022/06/13 04:25:12;;;;;;;18.15;5.97;;;;;;;10.73;100.00;155219.88;4947804;28;20637;-82
2022/06/13 04:27:58;;;;;;;15.82;5.85;;;;;;;10.77;100.00;155230.13;4931058;28;20106;-84
2022/06/13 04:30:28;;;;;;;25.60;6.72;;;;;;;10.62;100.00;155194.19;4940689;28;20031;-81
2022/06/13 04:33:04;;;;;;;15.23;5.50;;;;;;;10.66;100.00;155204.50;4943802;29;20031;-82
2022/06/13 04:35:32;;;;;;;15.75;5.25;;;;;;;10.76;100.00;155228.88;4942683;29;20111;-81
2022/06/13 04:38:01;;;;;;;18.65;5.45;;;;;;;10.84;100.00;155249.38;4934008;29;20098;-82
2022/06/13 04:40:30;;;;;;;16.65;5.45;;;;;;;11.07;100.00;155307.09;4949001;29;20098;-80
2022/06/13 04:42:57;;;;;;;10.73;5.03;;;;;;;10.96;100.00;155277.59;4939731;29;20086;-81
2022/06/13 04:45:27;;;;;;;17.08;5.68;;;;;;;11.07;100.00;155307.09;4943007;29;20035;-81
2022/06/13 04:47:55;;;;;;;22.63;5.68;;;;;;;10.96;100.00;155278.88;4960808;28;20041;-80
2022/06/13 04:50:34;;;;;;;19.77;5.25;;;;;;;11.01;100.00;155291.72;4918969;29;20130;-80
2022/06/13 04:53:03;;;;;;;19.83;5.68;;;;;;;11.06;100.00;155304.56;4949197;29;20054;-81
2022/06/13 04:55:38;;;;;;;17.83;5.28;;;;;;;11.14;100.00;155322.53;4920221;29;20027;-80
2022/06/13 04:58:04;;;;;;;19.15;5.70;;;;;;;11.12;100.00;155318.69;4946242;29;20054;-79
2022/06/13 05:00:32;;;;;;;23.95;6.38;;;;;;;11.23;100.00;155345.66;4956818;29;20039;-81
2022/06/13 05:02:58;;;;;;;17.75;5.40;;;;;;;11.53;100.00;155421.38;4933523;29;20059;-82
2022/06/13 05:05:33;;;;;;;23.67;5.70;;;;;;;11.71;100.00;155466.28;4953071;28;20051;-81
2022/06/13 05:07:59;;;;;;;19.63;5.70;;;;;;;11.79;100.00;155486.84;4953462;28;20050;-80
2022/06/13 05:10:31;;;;;;;23.67;5.80;;;;;;;12.14;100.00;155572.94;4962002;28;20118;-81
2022/06/13 05:12:57;;;;;;;19.25;5.35;;;;;;;12.38;100.00;155634.56;4953869;29;20050;-80
2022/06/13 05:15:34;;;;;;;28.52;5.55;;;;;;;12.78;100.00;155733.47;4938363;29;20046;-79
2022/06/13 05:18:23;;;;;;;15.43;5.03;;;;;;;12.81;100.00;155741.22;4948399;29;20046;-81
2022/06/13 05:20:52;;;;;;;14.80;4.50;;;;;;;13.17;100.00;155831.16;4949606;29;20107;-80
2022/06/13 05:23:47;;;;;;;15.18;4.43;;;;;;;13.44;100.00;155899.28;4958830;29;20039;-82
2022/06/13 05:26:13;;;;;;;15.57;4.00;;;;;;;13.35;100.00;155876.16;4961415;28;20106;-76
2022/06/13 05:28:39;;;;;;;12.02;3.60;;;;;;;13.44;100.00;155899.28;4933681;29;20039;-80
2022/06/13 05:31:19;;;;;;;14.98;5.32;;;;;;;13.49;100.00;155912.16;4918344;29;20130;-82
2022/06/13 05:33:50;;;;;;;18.70;4.18;;;;;;;13.46;100.00;155904.44;4924516;29;20383;-77
2022/06/13 05:36:22;;;;;;;14.50;4.47;;;;;;;13.37;100.00;155882.59;4963736;28;20034;-79
2022/06/13 05:38:53;;;;;;;14.40;3.70;;;;;;;13.43;100.00;155896.75;4923931;29;20043;-80
2022/06/13 05:41:19;;;;;;;19.70;4.43;;;;;;;13.38;100.00;155883.88;4948198;28;20039;-81
2022/06/13 05:43:45;;;;;;;14.60;3.80;;;;;;;13.37;100.00;155882.59;4940755;29;20042;-78
2022/06/13 05:46:27;;;;;;;14.20;3.80;;;;;;;13.46;100.00;155904.44;4957268;28;20053;-81
2022/06/13 05:48:53;;;;;;;14.95;3.72;;;;;;;13.55;100.00;155926.28;4966110;28;20067;-78
2022/06/13 05:51:19;;;;;;;13.30;3.33;;;;;;;13.71;100.00;155967.44;4948919;28;20494;-81
2022/06/13 05:53:45;;;;;;;17.15;4.00;;;;;;;14.19;100.00;156086.97;4950331;29;20046;-79
2022/06/13 05:56:11;;;;;;;15.02;3.75;;;;;;;14.48;100.00;156158.97;4944143;28;20414;-83
2022/06/13 05:58:37;;;;;;;17.98;3.25;;;;;;;14.84;100.00;156250.34;4919522;29;20043;-78
2022/06/13 06:01:05;;;;;;;15.02;3.85;;;;;;;14.86;99.46;156254.19;4939072;29;20490;-82
2022/06/13 06:03:31;;;;;;;16.15;3.30;;;;;;;14.89;100.00;156263.22;4944552;29;20031;-82
2022/06/13 06:05:59;;;;;;;10.65;3.78;;;;;;;14.85;100.00;156251.66;4916300;28;20039;-82
2022/06/13 06:08:27;;;;;;;17.98;3.97;;;;;;;14.69;100.00;156211.75;4945909;29;20032;-81
2022/06/13 06:10:55;;;;;;;13.20;3.22;;;;;;;14.66;100.00;156205.34;4940891;28;20057;-78
2022/06/13 06:13:21;;;;;;;17.48;3.47;;;;;;;14.79;100.00;156237.50;4937424;29;20035;-82
2022/06/13 06:15:49;;;;;;;15.05;3.72;;;;;;;14.75;100.00;156227.22;4965710;28;20066;-84
2022/06/13 06:18:15;;;;;;;13.15;3.53;;;;;;;15.10;100.00;156315.94;4968323;28;20091;-82
2022/06/13 06:20:42;;;;;;;18.92;3.97;;;;;;;15.08;97.95;156309.53;4937574;29;20047;-83
2022/06/13 06:23:09;;;;;;;18.52;3.65;;;;;;;15.13;98.60;156323.69;4937253;29;20050;-84
2022/06/13 06:25:35;;;;;;;12.75;3.40;;;;;;;15.33;96.36;156373.88;4955288;28;20023;-79
2022/06/13 06:28:02;;;;;;;17.88;3.42;;;;;;;15.67;96.21;156457.47;4957149;28;20093;-82
2022/06/13 06:30:29;;;;;;;11.55;3.53;;;;;;;15.78;100.00;156485.84;4935524;29;20028;-83
2022/06/13 06:32:55;;;;;;;14.73;3.45;;;;;;;15.90;100.00;156516.75;4914624;29;20118;-82
2022/06/13 06:35:24;;;;;;;11.80;3.03;;;;;;;15.94;96.06;156525.78;4934565;29;20047;-81
2022/06/13 06:37:51;;;;;;;16.10;3.40;;;;;;;15.95;94.93;156529.66;4948920;29;20043;-81
2022/06/13 06:40:21;;;;;;;9.32;3.08;;;;;;;15.77;94.03;156484.56;4940843;28;20043;-82
2022/06/13 06:42:52;;;;;;;9.88;3.00;;;;;;;15.82;96.89;156494.88;4954668;28;20108;-82
2022/06/13 06:45:18;;;;;;;15.55;3.03;;;;;;;15.63;92.11;156448.47;4934943;29;20782;-82
2022/06/13 06:47:44;;;;;;;15.63;3.47;;;;;;;15.66;95.21;156454.94;4945277;29;20031;-78
2022/06/13 06:50:15;;;;;;;18.58;3.58;;;;;;;15.60;98.13;156439.50;4919818;28;20050;-82
2022/06/13 06:52:42;;;;;;;14.73;3.78;;;;;;;15.40;95.81;156389.31;4940650;29;20043;-80
2022/06/13 07:00:50;;;;;;;17.65;3.67;;;;;;;15.66;96.05;156454.94;4956827;28;20039;-78
2022/06/13 07:03:17;;;;;;;16.83;3.47;;;;;;;15.70;100.00;156465.22;4944836;28;20039;-80
2022/06/13 07:05:43;;;;;;;13.63;3.55;;;;;;;15.93;94.57;156524.44;4946042;28;20522;-80
2022/06/13 07:08:09;;;;;;;16.92;3.28;;;;;;;16.19;95.96;156587.56;4931830;28;20652;-78
2022/06/13 07:10:34;;;;;;;13.30;3.33;;;;;;;16.41;94.09;156642.94;4908214;29;20035;-81
2022/06/13 07:13:00;;;;;;;14.10;3.40;;;;;;;16.43;92.26;156648.06;4935532;29;20039;-81
2022/06/13 07:15:26;;;;;;;20.95;3.20;;;;;;;16.47;90.85;156658.38;4941740;29;20504;-81
2022/06/13 07:17:51;;;;;;;12.40;3.30;;;;;;;16.23;86.18;156599.13;4942585;29;20043;-79
2022/06/13 07:20:17;;;;;;;13.80;2.55;;;;;;;16.06;86.81;156555.38;4950291;28;20035;-79
2022/06/13 07:22:52;;;;;;;11.75;2.92;;;;;;;15.90;94.61;156516.75;4954302;28;20043;-77
2022/06/13 07:25:21;;;;;;;14.93;2.95;;;;;;;15.67;93.52;156457.47;4927127;29;20054;-80
2022/06/13 07:27:47;;;;;;;12.57;2.80;;;;;;;15.70;93.52;156466.50;4915807;29;20044;-79
2022/06/13 07:30:15;;;;;;;11.55;2.90;;;;;;;15.65;91.55;156453.66;4943655;28;20047;-79
2022/06/13 07:32:41;;;;;;;12.10;3.38;;;;;;;15.58;94.33;156435.63;4952183;29;20050;-78
2022/06/13 07:35:09;;;;;;;11.18;2.75;;;;;;;15.45;97.60;156403.47;4921756;28;20046;-79
2022/06/13 07:40:18;;;;;;;15.68;2.83;;;;;;;15.87;89.02;156507.75;4945350;29;20070;-80
2022/06/13 07:42:48;;;;;;;14.10;2.80;;;;;;;15.98;88.45;156534.78;4965835;28;20031;-77
2022/06/13 07:45:18;;;;;;;13.38;2.78;;;;;;;16.03;87.24;156547.63;4937045;28;20034;-82
2022/06/13 07:47:44;;;;;;;11.70;2.50;;;;;;;16.42;88.74;156646.75;4917181;29;20113;-78
2022/06/13 07:50:13;;;;;;;19.90;2.75;;;;;;;16.94;88.06;156776.88;4927706;28;20097;-82
2022/06/13 07:52:39;;;;;;;11.38;3.03;;;;;;;17.27;84.00;156860.63;4943381;29;20043;-80
2022/06/13 07:55:06;;;;;;;13.85;3.80;;;;;;;17.28;84.75;156863.16;4917207;29;20042;-79
2022/06/13 07:57:32;;;;;;;18.38;3.30;;;;;;;17.11;85.45;156819.38;4921899;29;20050;-79
2022/06/13 07:59:57;;;;;;;13.80;2.88;;;;;;;17.39;82.08;156890.22;4944768;28;20066;-82
2022/06/13 08:02:29;;;;;;;12.80;2.95;;;;;;;17.56;83.05;156932.75;4935931;28;20043;-82
2022/06/13 08:04:54;;;;;;;11.27;3.00;;;;;;;17.41;85.22;156894.09;4947656;28;20050;-81
2022/06/13 08:07:20;;;;;;;14.25;2.80;;;;;;;17.17;83.28;156833.56;4933125;28;20043;-80
2022/06/13 08:09:46;;;;;;;11.55;3.45;;;;;;;16.55;89.38;156678.94;4901922;29;20035;-78
2022/06/13 08:12:14;;;;;;;5.97;1.67;;;;;;;15.79;81.46;156487.16;4933326;28;20031;-82
2022/06/13 08:14:45;;;;;;;6.28;1.60;;;;;;;15.05;83.80;156303.13;4931512;28;20045;-82
2022/06/13 08:17:12;;;;;;;4.13;1.40;;;;;;;14.26;90.85;156105.00;4935572;28;20036;-79
2022/06/13 08:19:38;;;;;;;2.78;1.45;;;;;;;13.66;98.59;155954.56;4930209;29;20031;-80
2022/06/13 08:22:04;;;;;;;5.65;1.52;;;;;;;13.34;100.00;155874.88;4928002;28;20130;-82
2022/06/13 08:24:29;;;;;;;5.18;1.65;;;;;;;13.12;100.00;155819.56;4954839;28;20039;-81
2022/06/13 08:26:55;;;;;;;15.27;1.92;;;;;;;12.52;100.00;155669.25;4937810;28;20032;-81
2022/06/13 08:29:21;;;;;;;11.73;2.10;;;;;;;12.20;100.00;155588.31;4936861;29;20239;-81
2022/06/13 08:31:46;;;;;;;15.10;2.10;;;;;;;12.21;100.00;155592.19;4946742;28;20035;-80
2022/06/13 08:34:12;;;;;;;12.48;2.22;;;;;;;12.27;100.00;155606.31;4951842;28;20405;-82
2022/06/13 08:36:38;;;;;;;7.80;2.30;;;;;;;12.29;100.00;155610.19;4943720;29;20043;-82
2022/06/13 08:39:03;;;;;;;9.27;2.45;;;;;;;12.61;100.00;155691.09;4936320;28;20047;-81
2022/06/13 08:41:35;;;;;;;6.90;2.13;;;;;;;13.01;100.00;155792.56;4960582;28;20035;-83
2022/06/13 08:44:25;;;;;;;9.82;2.30;;;;;;;13.60;100.00;155939.16;4945102;28;20518;-79
2022/06/13 08:47:04;;;;;;;8.90;2.80;;;;;;;14.26;100.00;156105.00;4945339;29;20077;-82
2022/06/13 08:49:40;;;;;;;8.65;2.60;;;;;;;14.74;100.00;156224.63;4934186;29;20086;-84
2022/06/13 08:52:25;;;;;;;8.98;3.03;;;;;;;15.16;100.00;156331.41;4957097;28;20036;-84
2022/06/13 08:55:14;;;;;;;8.98;1.95;;;;;;;15.17;100.00;156332.69;4924812;29;20385;-82
2022/06/13 08:57:45;;;;;;;9.77;2.70;;;;;;;14.58;100.00;156184.78;4910128;29;20103;-84
2022/06/13 09:00:17;;;;;;;6.38;1.85;;;;;;;14.60;100.00;156189.91;4938777;28;20138;-80
2022/06/13 09:02:52;;;;;;;6.93;1.98;;;;;;;14.84;100.00;156250.34;4946726;28;20054;-82
2022/06/13 09:05:36;;;;;;;6.35;1.73;;;;;;;15.05;100.00;156301.78;4934968;29;20386;-79
2022/06/13 09:08:33;;;;;;;4.85;1.67;;;;;;;15.31;100.00;156368.75;4937733;29;20046;-78
2022/06/13 09:11:14;;;;;;;4.80;1.52;;;;;;;15.54;100.00;156426.63;4912849;28;20043;-83
2022/06/13 09:13:42;;;;;;;5.78;1.33;;;;;;;16.02;100.00;156545.09;4915729;29;20047;-81
2022/06/13 09:16:29;;;;;;;4.93;1.27;;;;;;;16.11;99.76;156568.25;4930215;28;20047;-80
2022/06/13 09:19:23;;;;;;;3.78;1.00;;;;;;;16.34;100.00;156626.16;4923984;28;20086;-78
2022/06/13 09:22:05;;;;;;;1.92;0.88;;;;;;;16.38;93.80;156636.47;4948163;29;20457;-80
2022/06/13 09:24:58;;;;;;;3.60;0.90;;;;;;;16.49;92.21;156663.50;4923187;28;20034;-78
2022/06/13 09:27:30;;;;;;;2.15;0.75;;;;;;;16.51;91.41;156668.66;4947079;28;20038;-80
2022/06/13 09:30:11;;;;;;;2.85;0.77;;;;;;;16.46;85.56;156655.78;4956247;28;20047;-80
2022/06/13 09:33:26;;;;;;;4.95;0.80;;;;;;;16.79;89.28;156739.47;4946681;29;20046;-80
2022/06/13 09:35:58;;;;;;;2.45;0.57;;;;;;;16.89;92.72;156765.28;4943169;28;20051;-82
2022/06/13 09:38:31;;;;;;;1.65;0.70;;;;;;;16.96;89.06;156782.03;4933069;28;20078;-80
2022/06/13 09:41:08;;;;;;;3.53;0.70;;;;;;;17.22;86.00;156847.72;4938296;28;20130;-82
2022/06/13 09:43:47;;;;;;;3.60;0.77;;;;;;;17.20;88.99;156842.56;4929132;29;20090;-80
2022/06/13 09:46:33;;;;;;;3.35;0.80;;;;;;;17.52;88.23;156922.44;4947158;28;20040;-80
2022/06/13 09:49:36;;;;;;;3.28;0.65;;;;;;;17.62;87.40;156948.19;4955938;28;20038;-81
2022/06/13 09:52:12;;;;;;;4.05;1.17;;;;;;;17.43;90.82;156900.53;4922143;28;20043;-76
2022/06/13 09:54:50;;;;;;;4.43;0.88;;;;;;;17.31;85.19;156870.91;4938223;28;20035;-78
2022/06/13 09:57:42;;;;;;;1.27;0.60;;;;;;;17.94;91.47;157028.13;4951135;28;20038;-79
2022/06/13 10:00:18;;;;;;;1.33;0.60;;;;;;;18.62;92.48;157198.28;4934583;28;20042;-78
2022/06/13 10:02:50;;;;;;;6.97;0.52;;;;;;;18.59;82.76;157191.84;4952540;28;20047;-79
2022/06/13 10:05:30;;;;;;;1.83;0.40;;;;;;;18.73;86.98;157226.63;4965561;28;20042;-81
2022/06/13 10:08:10;;;;;;;2.83;0.55;;;;;;;18.58;77.57;157189.25;4935171;28;20081;-80
2022/06/13 10:10:47;;;;;;;1.92;0.50;;;;;;;18.71;82.36;157221.47;4949436;28;20106;-80
2022/06/13 10:13:37;;;;;;;0.40;0.40;;;;;;;18.91;79.17;157271.81;4930991;28;20035;-80
2022/06/13 10:16:22;;;;;;;1.42;0.50;;;;;;;18.83;70.12;157251.16;4941946;28;20150;-79
2022/06/13 10:18:47;;;;;;;2.25;0.43;;;;;;;18.72;71.16;157222.75;4933370;29;20395;-79
2022/06/13 10:21:22;;;;;;;2.67;0.75;;;;;;;18.87;76.88;157261.47;4934335;28;20051;-79
2022/06/13 10:24:11;;;;;;;2.53;0.47;;;;;;;18.94;77.88;157278.25;4909153;29;20040;-79
2022/06/13 10:26:59;;;;;;;2.53;0.30;;;;;;;18.67;72.84;157211.19;4928264;29;20043;-81
2022/06/13 10:29:39;;;;;;;6.50;0.50;;;;;;;19.05;67.76;157306.63;4947436;28;20039;-82
2022/06/13 10:32:31;;;;;;;1.10;0.38;;;;;;;19.42;74.96;157399.44;4918969;29;20550;-80
2022/06/13 10:35:18;;;;;;;3.77;0.67;;;;;;;19.34;69.12;157380.09;4926468;28;20054;-81
2022/06/13 10:38:01;;;;;;;0.60;0.40;;;;;;;19.44;70.93;157404.63;4928851;29;20289;-82
2022/06/13 10:40:28;;;;;;;3.30;0.52;;;;;;;19.88;65.93;157514.31;4919585;29;20503;-83
2022/06/13 10:42:54;;;;;;;7.38;0.25;;;;;;;19.58;65.46;157440.72;4930388;29;20055;-80
2022/06/13 10:45:20;;;;;;;2.47;0.55;;;;;;;19.62;71.16;157451.03;4925422;28;20035;-81
2022/06/13 10:47:57;;;;;;;2.40;0.50;;;;;;;19.59;64.47;157442.00;4936407;29;20072;-77
2022/06/13 10:50:31;;;;;;;2.90;0.47;;;;;;;18.65;67.80;157207.28;4925949;29;20039;-79
2022/06/13 10:53:15;;;;;;;3.22;0.43;;;;;;;17.81;72.38;156995.88;4940616;28;20036;-80
2022/06/13 10:55:42;;;;;;;2.83;0.50;;;;;;;17.36;72.89;156881.22;4933944;29;20216;-81
2022/06/13 10:58:17;;;;;;;4.65;0.55;;;;;;;17.36;77.26;156882.50;4949458;28;20106;-80
2022/06/13 11:01:14;;;;;;;2.63;0.90;;;;;;;17.63;73.64;156950.78;4932388;29;20150;-79
2022/06/13 11:03:43;;;;;;;2.80;0.55;;;;;;;18.62;72.29;157198.28;4922493;29;20039;-78
2022/06/13 11:06:23;;;;;;;1.67;0.50;;;;;;;19.64;72.46;157456.19;4930276;28;20046;-79
2022/06/13 11:08:58;;;;;;;2.42;0.50;;;;;;;20.02;69.29;157551.72;4946743;28;20050;-82
2022/06/13 11:11:39;;;;;;;2.40;0.60;;;;;;;20.48;68.56;157665.28;4940768;28;20031;-79
2022/06/13 11:14:06;;;;;;;1.35;0.40;;;;;;;20.96;71.21;157786.59;4929521;28;20071;-78
2022/06/13 11:22:39;;;;;;;2.40;0.45;;;;;;;19.92;60.71;157524.63;4925151;29;20151;-81
2022/06/13 11:25:26;;;;;;;2.28;0.40;;;;;;;19.28;68.43;157363.34;4946069;28;20079;-80
2022/06/13 11:28:21;;;;;;;1.85;0.65;;;;;;;18.66;66.29;157209.84;4905481;29;20040;-79
2022/06/13 11:30:49;;;;;;;1.63;0.30;;;;;;;18.14;68.30;157078.41;4915224;29;20119;-77
2022/06/13 11:33:32;;;;;;;4.85;0.70;;;;;;;17.64;71.05;156953.34;4924837;29;20046;-81
2022/06/13 11:36:18;;;;;;;2.95;0.60;;;;;;;17.23;76.35;156849.00;4910346;28;20054;-79
2022/06/13 11:39:04;;;;;;;1.75;0.45;;;;;;;16.75;72.58;156729.19;4923534;29;20058;-79
2022/06/13 11:41:42;;;;;;;3.65;0.52;;;;;;;16.48;85.37;156662.25;4917367;29;20035;-82
2022/06/13 11:44:13;;;;;;;2.58;0.60;;;;;;;16.13;85.93;156574.69;4943853;28;20035;-80
2022/06/13 11:46:54;;;;;;;2.60;0.60;;;;;;;15.69;95.23;156463.94;4938612;29;20125;-81
2022/06/13 11:49:29;;;;;;;5.35;0.80;;;;;;;15.05;100.00;156301.78;4948815;29;20039;-82
2022/06/13 11:52:10;;;;;;;4.13;0.95;;;;;;;14.74;100.00;156225.91;4912807;28;20512;-83
2022/06/13 11:54:40;;;;;;;4.07;0.60;;;;;;;14.54;100.00;156175.72;4942876;28;20122;-83
2022/06/13 11:57:18;;;;;;;4.75;0.80;;;;;;;14.48;100.00;156160.25;4907666;28;20043;-83
2022/06/13 11:59:56;;;;;;;4.40;0.80;;;;;;;14.69;100.00;156211.75;4964883;28;20031;-82
2022/06/13 12:02:39;;;;;;;6.50;1.10;;;;;;;15.67;100.00;156458.81;4929041;28;20069;-84
2022/06/13 12:05:31;;;;;;;6.55;1.20;;;;;;;16.41;100.00;156642.94;4923778;28;20329;-84
2022/06/13 12:08:15;;;;;;;4.82;0.98;;;;;;;16.78;100.00;156736.88;4935277;28;20756;-82
2022/06/13 12:10:54;;;;;;;6.78;0.75;;;;;;;17.17;100.00;156834.84;4922143;29;20047;-83
2022/06/13 12:13:22;;;;;;;4.88;0.90;;;;;;;17.58;99.10;156937.91;4903416;29;20023;-81